Time;durP1;ratioP1;P1;durP2;ratioP2;P2;SDS_P1;SDS_P2;PMS_P1;PMS_P2;Temp;Humidity;BMP_temperature;BMP_pressure;BME280_temperature;BME280_humidity;BME280_pressure;Samples;Min_cycle;Max_cycle;Signal;HPM_P1;HPM_P2
2024/04/25 00:00:20;;;;;;;36.73;10.70;;;;;;;;;;5564421;25;20282;-79
2024/04/25 00:02:51;;;;;;;29.67;10.37;;;;;;;;;;5564461;25;20284;-78
2024/04/25 00:05:17;;;;;;;24.70;9.23;;;;;;;;;;5563681;25;20288;-78
2024/04/25 00:07:45;;;;;;;34.53;11.83;;;;;;;;;;5567141;25;20233;-78
2024/04/25 00:10:14;;;;;;;35.93;11.60;;;;;;;;;;5564478;25;20284;-78
2024/04/25 00:12:43;;;;;;;33.73;11.17;;;;;;;;;;5564469;25;20276;-78
2024/04/25 00:15:14;;;;;;;28.53;10.83;;;;;;;;;;5564326;25;20229;-78
2024/04/25 00:17:43;;;;;;;30.83;11.33;;;;;;;;;;5564748;25;20234;-78
2024/04/25 00:20:12;;;;;;;35.90;11.13;;;;;;;;;;5564127;25;20275;-78
2024/04/25 00:22:40;;;;;;;21.43;10.57;;;;;;;;;;5564291;25;20225;-78
2024/04/25 00:25:09;;;;;;;35.30;12.50;;;;;;;;;;5563916;25;20675;-78
2024/04/25 00:27:37;;;;;;;32.67;10.87;;;;;;;;;;5564585;25;20228;-78
2024/04/25 00:30:07;;;;;;;28.03;10.10;;;;;;;;;;5563998;25;20234;-78
2024/04/25 00:32:38;;;;;;;39.23;11.33;;;;;;;;;;5563864;25;20237;-78
2024/04/25 00:35:06;;;;;;;37.03;11.60;;;;;;;;;;5564132;25;20232;-78
2024/04/25 00:37:35;;;;;;;29.60;10.30;;;;;;;;;;5563934;25;20229;-78
2024/04/25 00:40:05;;;;;;;33.00;11.10;;;;;;;;;;5563814;25;20278;-79
2024/04/25 00:42:33;;;;;;;31.63;10.60;;;;;;;;;;5563737;25;20227;-78
2024/04/25 00:45:01;;;;;;;23.70;9.83;;;;;;;;;;5563552;25;20563;-78
2024/04/25 00:47:31;;;;;;;32.93;9.97;;;;;;;;;;5563436;25;20285;-78
2024/04/25 00:50:02;;;;;;;32.40;9.77;;;;;;;;;;5564179;25;20278;-78
2024/04/25 00:52:31;;;;;;;37.20;10.93;;;;;;;;;;5563402;25;20229;-78
2024/04/25 00:55:04;;;;;;;33.00;9.77;;;;;;;;;;5563855;25;20739;-78
2024/04/25 00:57:34;;;;;;;36.87;11.97;;;;;;;;;;5540865;25;20369;-78
2024/04/25 01:00:03;;;;;;;33.30;9.87;;;;;;;;;;5563352;25;20278;-79
2024/04/25 01:02:33;;;;;;;26.37;12.30;;;;;;;;;;5563911;25;20694;-78
2024/04/25 01:05:05;;;;;;;36.60;9.90;;;;;;;;;;5563271;25;20584;-79
2024/04/25 01:07:34;;;;;;;39.73;10.60;;;;;;;;;;5563489;25;20621;-79
2024/04/25 01:10:02;;;;;;;27.77;9.03;;;;;;;;;;5563438;25;20281;-79
2024/04/25 01:12:31;;;;;;;38.80;9.77;;;;;;;;;;5563243;25;20356;-79
2024/04/25 01:15:00;;;;;;;35.60;10.37;;;;;;;;;;5562994;25;20273;-78
2024/04/25 01:17:32;;;;;;;28.70;9.60;;;;;;;;;;5563716;25;20238;-78
2024/04/25 01:20:00;;;;;;;34.07;11.20;;;;;;;;;;5562980;25;20236;-78
2024/04/25 01:22:36;;;;;;;25.47;11.00;;;;;;;;;;5563408;25;20272;-79
2024/04/25 01:25:09;;;;;;;36.27;11.03;;;;;;;;;;5562733;25;20224;-79
2024/04/25 01:27:38;;;;;;;31.77;9.83;;;;;;;;;;5562883;25;20270;-78
2024/04/25 01:30:07;;;;;;;26.30;9.67;;;;;;;;;;5563073;25;20228;-78
2024/04/25 01:32:36;;;;;;;46.57;12.30;;;;;;;;;;5562553;25;20237;-79
2024/04/25 01:35:05;;;;;;;34.10;9.90;;;;;;;;;;5562960;25;20269;-78
2024/04/25 01:37:34;;;;;;;37.77;9.23;;;;;;;;;;5562628;25;20271;-78
2024/04/25 01:40:02;;;;;;;26.07;11.33;;;;;;;;;;5562703;25;20287;-78
2024/04/25 01:42:34;;;;;;;22.30;8.70;;;;;;;;;;5562801;25;20563;-79
2024/04/25 01:45:02;;;;;;;34.50;10.43;;;;;;;;;;5562937;25;20250;-79
2024/04/25 01:47:30;;;;;;;38.97;13.17;;;;;;;;;;5562038;25;20276;-79
2024/04/25 01:49:59;;;;;;;36.57;11.87;;;;;;;;;;5562832;25;20350;-78
2024/04/25 01:52:27;;;;;;;31.23;9.20;;;;;;;;;;5562666;25;20229;-79
2024/04/25 01:54:56;;;;;;;30.43;10.27;;;;;;;;;;5562172;25;20769;-79
2024/04/25 01:57:24;;;;;;;32.27;10.37;;;;;;;;;;5562696;25;20580;-79
2024/04/25 01:59:55;;;;;;;38.90;9.90;;;;;;;;;;5562727;25;20235;-79
2024/04/25 02:02:24;;;;;;;34.43;9.67;;;;;;;;;;5562844;25;20560;-78
2024/04/25 02:04:52;;;;;;;43.00;9.77;;;;;;;;;;5562714;25;20768;-79
2024/04/25 02:07:21;;;;;;;35.20;11.17;;;;;;;;;;5562648;25;20420;-78
2024/04/25 02:09:49;;;;;;;24.30;10.20;;;;;;;;;;5562111;25;20828;-78
2024/04/25 02:12:18;;;;;;;35.87;10.30;;;;;;;;;;5562809;25;20235;-78
2024/04/25 02:14:46;;;;;;;34.87;11.00;;;;;;;;;;5564759;25;20296;-78
2024/04/25 02:17:18;;;;;;;24.87;9.90;;;;;;;;;;5562315;25;20731;-78
2024/04/25 02:19:46;;;;;;;22.07;10.40;;;;;;;;;;5562566;25;20263;-78
2024/04/25 02:27:47;;;;;;;31.23;11.37;;;;;;;;;;5554884;25;20268;-78
2024/04/25 02:30:16;;;;;;;32.77;11.00;;;;;;;;;;5562147;25;20234;-78
2024/04/25 02:32:47;;;;;;;29.97;10.93;;;;;;;;;;5561922;25;21575;-78
2024/04/25 02:35:15;;;;;;;33.67;10.47;;;;;;;;;;5562634;25;20274;-78
2024/04/25 02:37:44;;;;;;;20.80;9.67;;;;;;;;;;5566013;25;20235;-78
2024/04/25 02:40:12;;;;;;;44.70;13.67;;;;;;;;;;5565594;25;20276;-78
2024/04/25 02:42:41;;;;;;;30.30;11.70;;;;;;;;;;5565655;25;20780;-78
2024/04/25 02:45:12;;;;;;;24.00;10.47;;;;;;;;;;5564673;25;20228;-78
2024/04/25 02:47:37;;;;;;;35.53;10.60;;;;;;;;;;5565773;25;20343;-78
2024/04/25 02:50:11;;;;;;;31.73;10.13;;;;;;;;;;5568231;25;20632;-78
2024/04/25 02:52:37;;;;;;;47.33;26.23;;;;;;;;;;5565706;25;20828;-78
2024/04/25 02:55:06;;;;;;;40.23;12.97;;;;;;;;;;5567658;25;20241;-78
2024/04/25 02:57:32;;;;;;;28.33;9.87;;;;;;;;;;5565553;25;20232;-78
2024/04/25 03:00:00;;;;;;;21.10;9.60;;;;;;;;;;5567828;25;20651;-78
2024/04/25 03:02:28;;;;;;;57.43;24.83;;;;;;;;;;5565504;25;20233;-78
2024/04/25 03:04:56;;;;;;;37.73;17.40;;;;;;;;;;5567025;25;20232;-78
2024/04/25 03:07:25;;;;;;;36.83;13.50;;;;;;;;;;5565211;25;20235;-78
2024/04/25 03:09:53;;;;;;;51.37;24.33;;;;;;;;;;5567500;25;20352;-78
2024/04/25 03:12:19;;;;;;;36.23;14.27;;;;;;;;;;5565455;25;20235;-79
2024/04/25 03:14:48;;;;;;;38.43;11.93;;;;;;;;;;5567526;25;20341;-78
2024/04/25 03:17:13;;;;;;;33.30;8.90;;;;;;;;;;5565251;25;20232;-78
2024/04/25 03:19:42;;;;;;;33.87;11.17;;;;;;;;;;5552878;25;20279;-77
2024/04/25 03:22:07;;;;;;;33.30;10.73;;;;;;;;;;5549856;25;20230;-76
2024/04/25 03:24:38;;;;;;;38.20;9.63;;;;;;;;;;5566795;25;20766;-76
2024/04/25 03:27:04;;;;;;;25.67;9.40;;;;;;;;;;5564241;25;20714;-77
2024/04/25 03:29:33;;;;;;;31.40;9.67;;;;;;;;;;5567184;25;20280;-77
2024/04/25 03:31:58;;;;;;;38.47;10.07;;;;;;;;;;5564796;25;20277;-77
2024/04/25 03:34:27;;;;;;;30.90;10.37;;;;;;;;;;5567229;25;20713;-78
2024/04/25 03:36:56;;;;;;;37.27;9.83;;;;;;;;;;5564303;25;20231;-79
2024/04/25 03:39:25;;;;;;;30.93;8.87;;;;;;;;;;5564450;25;20224;-79
2024/04/25 03:41:56;;;;;;;34.97;9.20;;;;;;;;;;5564832;25;20269;-79
2024/04/25 03:44:24;;;;;;;25.07;8.53;;;;;;;;;;5564780;25;20233;-79
2024/04/25 03:46:53;;;;;;;28.70;14.80;;;;;;;;;;5563650;25;20231;-79
2024/04/25 03:49:21;;;;;;;30.33;12.20;;;;;;;;;;5565306;25;20362;-79
2024/04/25 03:51:49;;;;;;;40.63;18.60;;;;;;;;;;5564412;25;20227;-79
2024/04/25 03:54:18;;;;;;;36.43;14.10;;;;;;;;;;5564585;25;20223;-79
2024/04/25 03:56:49;;;;;;;42.87;18.40;;;;;;;;;;5564054;25;20239;-79
2024/04/25 03:59:20;;;;;;;49.97;22.20;;;;;;;;;;5564801;25;20281;-79
2024/04/25 04:01:49;;;;;;;24.83;11.83;;;;;;;;;;5564224;25;20234;-79
2024/04/25 04:04:19;;;;;;;41.83;18.60;;;;;;;;;;5564308;25;20565;-79
2024/04/25 04:06:47;;;;;;;35.07;13.50;;;;;;;;;;5564284;25;20236;-79
2024/04/25 04:09:15;;;;;;;31.10;12.30;;;;;;;;;;5564324;25;20227;-79
2024/04/25 04:11:44;;;;;;;41.10;17.20;;;;;;;;;;5563868;25;20581;-79
2024/04/25 04:14:13;;;;;;;63.50;28.73;;;;;;;;;;5564304;25;20862;-79
2024/04/25 04:16:44;;;;;;;49.77;24.20;;;;;;;;;;5564309;25;20218;-79
2024/04/25 04:19:12;;;;;;;36.83;13.83;;;;;;;;;;5564278;25;20262;-79
2024/04/25 04:21:41;;;;;;;39.97;20.23;;;;;;;;;;5563896;25;20548;-79
2024/04/25 04:24:09;;;;;;;47.17;25.73;;;;;;;;;;5564613;25;20279;-79
2024/04/25 04:26:38;;;;;;;57.97;23.63;;;;;;;;;;5564123;25;20236;-79
2024/04/25 04:29:06;;;;;;;25.40;12.83;;;;;;;;;;5564283;25;20232;-79
2024/04/25 04:31:35;;;;;;;34.43;10.83;;;;;;;;;;5562005;25;20236;-79
2024/04/25 04:34:06;;;;;;;35.43;9.97;;;;;;;;;;5563974;25;20267;-79
2024/04/25 04:36:34;;;;;;;33.47;10.93;;;;;;;;;;5540065;25;20234;-79
2024/04/25 04:39:03;;;;;;;29.53;9.63;;;;;;;;;;5563313;25;20236;-79
2024/04/25 04:41:32;;;;;;;30.17;9.73;;;;;;;;;;5564136;25;20352;-79
2024/04/25 04:44:00;;;;;;;34.97;10.13;;;;;;;;;;5538760;25;20235;-79
2024/04/25 04:46:29;;;;;;;26.43;10.43;;;;;;;;;;5563639;25;20232;-79
2024/04/25 04:48:57;;;;;;;29.70;11.07;;;;;;;;;;5564180;25;20714;-79
2024/04/25 04:51:29;;;;;;;27.20;10.60;;;;;;;;;;5563898;25;20235;-79
2024/04/25 04:53:57;;;;;;;34.03;10.60;;;;;;;;;;5563811;25;20750;-78
2024/04/25 04:56:44;;;;;;;30.97;9.47;;;;;;;;;;5551612;25;1246048;-79
2024/04/25 04:59:12;;;;;;;36.90;10.23;;;;;;;;;;5543291;25;20266;-79
2024/04/25 05:01:40;;;;;;;39.23;9.07;;;;;;;;;;5544044;25;20231;-79
2024/04/25 05:04:09;;;;;;;31.23;9.43;;;;;;;;;;5544922;25;20231;-79
2024/04/25 05:06:37;;;;;;;27.33;9.63;;;;;;;;;;5544639;25;20274;-79
2024/04/25 05:09:06;;;;;;;33.90;12.20;;;;;;;;;;5560784;25;20268;-79
2024/04/25 05:11:34;;;;;;;28.03;11.00;;;;;;;;;;5581978;25;20230;-79
2024/04/25 05:14:05;;;;;;;37.73;10.57;;;;;;;;;;5582230;25;20213;-79
2024/04/25 05:16:35;;;;;;;35.57;11.13;;;;;;;;;;5575732;25;20227;-79
2024/04/25 05:19:03;;;;;;;28.67;9.10;;;;;;;;;;5564649;25;20744;-78
2024/04/25 05:21:32;;;;;;;36.93;10.97;;;;;;;;;;5555910;25;20230;-79
2024/04/25 05:24:02;;;;;;;38.90;9.20;;;;;;;;;;5559424;25;20234;-79
2024/04/25 05:26:30;;;;;;;41.77;11.50;;;;;;;;;;5568401;25;20234;-79
2024/04/25 05:28:58;;;;;;;41.97;10.07;;;;;;;;;;5543754;25;20228;-79
2024/04/25 05:31:32;;;;;;;28.83;9.13;;;;;;;;;;5555712;25;20264;-79
2024/04/25 05:34:00;;;;;;;42.80;10.17;;;;;;;;;;5555364;25;20275;-79
2024/04/25 05:36:28;;;;;;;32.83;10.70;;;;;;;;;;5567259;25;20233;-80
2024/04/25 05:38:57;;;;;;;31.73;9.33;;;;;;;;;;5569212;25;20231;-78
2024/04/25 05:41:26;;;;;;;36.30;10.67;;;;;;;;;;5544369;25;20576;-78
2024/04/25 05:43:55;;;;;;;39.87;10.97;;;;;;;;;;5569034;25;20558;-79
2024/04/25 05:46:24;;;;;;;43.67;13.03;;;;;;;;;;5560974;25;20229;-79
2024/04/25 05:48:55;;;;;;;41.10;12.37;;;;;;;;;;5556352;25;20239;-79
2024/04/25 05:51:23;;;;;;;45.10;10.67;;;;;;;;;;5581476;25;20270;-79
2024/04/25 05:53:52;;;;;;;37.33;13.70;;;;;;;;;;5549545;25;20280;-78
2024/04/25 05:56:20;;;;;;;31.83;12.17;;;;;;;;;;5543768;25;20247;-78
2024/04/25 05:58:51;;;;;;;39.90;9.93;;;;;;;;;;5544154;25;20235;-79
2024/04/25 06:01:20;;;;;;;38.77;12.27;;;;;;;;;;5543745;25;20266;-79
2024/04/25 06:03:48;;;;;;;28.77;9.87;;;;;;;;;;5580379;25;20774;-79
2024/04/25 06:06:19;;;;;;;47.60;12.63;;;;;;;;;;5552704;25;20266;-78
2024/04/25 06:08:48;;;;;;;47.50;13.37;;;;;;;;;;5528051;25;20231;-78
2024/04/25 06:11:16;;;;;;;53.43;14.87;;;;;;;;;;5528143;25;20226;-79
2024/04/25 06:13:45;;;;;;;39.10;13.73;;;;;;;;;;5565119;25;20235;-78
2024/04/25 06:16:13;;;;;;;49.33;14.33;;;;;;;;;;5539536;25;20228;-79
2024/04/25 06:18:41;;;;;;;41.47;13.07;;;;;;;;;;5564965;25;20618;-78
2024/04/25 06:21:10;;;;;;;42.47;13.90;;;;;;;;;;5564760;25;20223;-79
2024/04/25 06:23:41;;;;;;;47.27;11.77;;;;;;;;;;5565626;25;20274;-79
2024/04/25 06:26:09;;;;;;;49.47;13.93;;;;;;;;;;5560310;25;20230;-79
2024/04/25 06:28:38;;;;;;;41.33;13.60;;;;;;;;;;5545017;25;20234;-79
2024/04/25 06:31:07;;;;;;;41.10;13.07;;;;;;;;;;5564964;25;20359;-79
2024/04/25 06:33:35;;;;;;;49.20;12.80;;;;;;;;;;5565102;25;20340;-79
2024/04/25 06:36:03;;;;;;;46.87;14.33;;;;;;;;;;5563669;25;20232;-79
2024/04/25 06:38:32;;;;;;;56.20;13.23;;;;;;;;;;5565219;25;20270;-79
2024/04/25 06:41:03;;;;;;;38.43;12.27;;;;;;;;;;5564091;25;20776;-79
2024/04/25 06:43:31;;;;;;;48.90;13.40;;;;;;;;;;5542494;25;20625;-79
2024/04/25 06:46:00;;;;;;;45.07;13.93;;;;;;;;;;5563154;25;20295;-79
2024/04/25 06:48:28;;;;;;;54.20;14.30;;;;;;;;;;5541027;25;20309;-79
2024/04/25 06:50:56;;;;;;;34.67;14.43;;;;;;;;;;5539916;25;20273;-78
2024/04/25 06:53:25;;;;;;;41.50;12.57;;;;;;;;;;5539783;25;20276;-79
2024/04/25 06:55:54;;;;;;;40.90;13.27;;;;;;;;;;5563552;25;20269;-79
2024/04/25 06:58:25;;;;;;;51.43;11.20;;;;;;;;;;5564047;25;20233;-78
2024/04/25 07:00:54;;;;;;;40.63;12.53;;;;;;;;;;5564244;25;20236;-79
2024/04/25 07:03:22;;;;;;;41.40;8.00;;;;;;;;;;5564483;25;20230;-79
2024/04/25 07:05:51;;;;;;;33.10;9.13;;;;;;;;;;5563995;25;20233;-79
2024/04/25 07:08:21;;;;;;;33.97;8.27;;;;;;;;;;5560078;25;20323;-78
2024/04/25 07:10:49;;;;;;;43.53;8.83;;;;;;;;;;5526977;25;20237;-79
2024/04/25 07:13:18;;;;;;;33.60;9.50;;;;;;;;;;5527021;25;20237;-79
2024/04/25 07:15:49;;;;;;;36.17;9.13;;;;;;;;;;5526573;25;20574;-79
2024/04/25 07:18:21;;;;;;;37.33;8.60;;;;;;;;;;5550760;25;20274;-79
2024/04/25 07:20:49;;;;;;;29.03;8.33;;;;;;;;;;5549348;25;20233;-79
2024/04/25 07:23:18;;;;;;;31.03;7.63;;;;;;;;;;5563639;25;20611;-79
2024/04/25 07:25:46;;;;;;;35.63;9.10;;;;;;;;;;5540703;25;20231;-79
2024/04/25 07:28:15;;;;;;;40.57;7.83;;;;;;;;;;5526801;25;20703;-79
2024/04/25 07:30:44;;;;;;;38.47;8.70;;;;;;;;;;5552006;25;20237;-79
2024/04/25 07:33:15;;;;;;;24.47;6.77;;;;;;;;;;5563991;25;20230;-78
2024/04/25 07:35:48;;;;;;;31.97;8.80;;;;;;;;;;5535932;25;20232;-79
2024/04/25 07:38:17;;;;;;;35.07;8.70;;;;;;;;;;5526823;25;20229;-79
2024/04/25 07:40:46;;;;;;;36.23;9.73;;;;;;;;;;5526129;25;20370;-79
2024/04/25 07:43:15;;;;;;;35.57;8.03;;;;;;;;;;5545657;25;20237;-79
2024/04/25 07:45:42;;;;;;;34.40;7.60;;;;;;;;;;5556607;25;20358;-79
2024/04/25 07:48:10;;;;;;;34.37;7.33;;;;;;;;;;5548905;25;20305;-79
2024/04/25 07:50:41;;;;;;;48.47;10.43;;;;;;;;;;5562987;25;20234;-79
2024/04/25 07:53:10;;;;;;;33.40;9.00;;;;;;;;;;5563683;25;20313;-79
2024/04/25 07:55:38;;;;;;;41.47;9.53;;;;;;;;;;5563227;25;20236;-79
2024/04/25 07:58:07;;;;;;;33.30;8.30;;;;;;;;;;5540218;25;20236;-78
2024/04/25 08:00:35;;;;;;;41.30;9.63;;;;;;;;;;5525820;25;20279;-79
2024/04/25 08:03:04;;;;;;;35.30;10.10;;;;;;;;;;5551526;25;20362;-78
2024/04/25 08:05:32;;;;;;;37.07;12.20;;;;;;;;;;5538527;25;20250;-79
2024/04/25 08:08:03;;;;;;;39.77;11.27;;;;;;;;;;5539399;25;20278;-79
2024/04/25 08:10:32;;;;;;;32.70;9.93;;;;;;;;;;5525841;25;20346;-79
2024/04/25 08:13:00;;;;;;;41.53;11.50;;;;;;;;;;5552241;25;20229;-79
2024/04/25 08:15:29;;;;;;;46.23;8.90;;;;;;;;;;5563145;25;20280;-78
2024/04/25 08:17:58;;;;;;;39.93;10.13;;;;;;;;;;5538384;25;20277;-79
2024/04/25 08:20:26;;;;;;;43.17;8.57;;;;;;;;;;5546656;25;20570;-78
2024/04/25 08:22:56;;;;;;;38.43;10.37;;;;;;;;;;5551339;25;20226;-78
2024/04/25 08:25:27;;;;;;;39.20;9.20;;;;;;;;;;5544513;25;20231;-79
2024/04/25 08:27:55;;;;;;;45.83;9.20;;;;;;;;;;5531563;25;20234;-79
2024/04/25 08:30:24;;;;;;;40.20;10.00;;;;;;;;;;5525129;25;20278;-78
2024/04/25 08:32:54;;;;;;;32.77;8.70;;;;;;;;;;5550997;25;20339;-79
2024/04/25 08:35:22;;;;;;;44.57;9.60;;;;;;;;;;5547640;25;20272;-79
2024/04/25 08:37:50;;;;;;;39.63;10.77;;;;;;;;;;5527882;25;20228;-79
2024/04/25 08:40:19;;;;;;;36.27;10.30;;;;;;;;;;5525491;25;20718;-79
2024/04/25 08:42:51;;;;;;;41.00;10.20;;;;;;;;;;5537211;25;20231;-79
2024/04/25 08:45:17;;;;;;;51.50;20.90;;;;;;;;;;5537420;25;20286;-79
2024/04/25 08:47:46;;;;;;;43.23;17.57;;;;;;;;;;5552813;25;20227;-79
2024/04/25 08:50:15;;;;;;;38.07;13.10;;;;;;;;;;5550463;25;20230;-79
2024/04/25 08:52:44;;;;;;;35.87;8.57;;;;;;;;;;5539288;25;20301;-79
2024/04/25 08:55:17;;;;;;;31.00;9.17;;;;;;;;;;5560033;25;20230;-79
2024/04/25 08:57:45;;;;;;;27.60;8.10;;;;;;;;;;5542641;25;20226;-79
2024/04/25 09:00:18;;;;;;;28.23;8.73;;;;;;;;;;5537047;25;20294;-79
2024/04/25 09:02:48;;;;;;;28.70;8.70;;;;;;;;;;5562294;25;20290;-79
2024/04/25 09:05:17;;;;;;;40.43;10.47;;;;;;;;;;5561478;25;20335;-79
2024/04/25 09:07:46;;;;;;;42.30;9.97;;;;;;;;;;5562746;25;20261;-79
2024/04/25 09:10:14;;;;;;;34.70;9.33;;;;;;;;;;5561872;25;20273;-79
2024/04/25 09:12:43;;;;;;;34.27;9.63;;;;;;;;;;5562113;25;20272;-79
2024/04/25 09:15:11;;;;;;;36.57;9.80;;;;;;;;;;5536882;25;20276;-79
2024/04/25 09:17:42;;;;;;;31.70;10.27;;;;;;;;;;5562451;25;20334;-79
2024/04/25 09:20:12;;;;;;;35.60;10.27;;;;;;;;;;5550021;25;20700;-79
2024/04/25 09:22:41;;;;;;;30.73;8.63;;;;;;;;;;5525112;25;20287;-79
2024/04/25 09:25:10;;;;;;;39.10;9.73;;;;;;;;;;5562381;25;20265;-78
2024/04/25 09:27:38;;;;;;;42.93;11.33;;;;;;;;;;5535585;25;20228;-79
2024/04/25 09:30:09;;;;;;;34.70;12.40;;;;;;;;;;5539584;25;20241;-79
2024/04/25 09:32:37;;;;;;;29.50;10.13;;;;;;;;;;5558411;25;20261;-79
2024/04/25 09:35:09;;;;;;;31.30;10.47;;;;;;;;;;5524450;25;20235;-79
2024/04/25 09:37:38;;;;;;;18.10;7.40;;;;;;;;;;5555326;25;20267;-78
2024/04/25 09:40:08;;;;;;;28.93;11.73;;;;;;;;;;5562103;25;20334;-79
2024/04/25 09:42:38;;;;;;;30.57;9.50;;;;;;;;;;5531305;25;20236;-78
2024/04/25 09:45:09;;;;;;;36.37;11.10;;;;;;;;;;5549404;25;20226;-78
2024/04/25 09:47:40;;;;;;;32.63;10.80;;;;;;;;;;5530134;25;20228;-78
2024/04/25 09:50:15;;;;;;;36.60;9.97;;;;;;;;;;5552689;25;20231;-79
2024/04/25 09:52:46;;;;;;;32.17;9.87;;;;;;;;;;5542399;25;20786;-79
2024/04/25 09:55:19;;;;;;;28.47;9.97;;;;;;;;;;5540367;25;20637;-79
2024/04/25 09:57:49;;;;;;;31.40;11.23;;;;;;;;;;5547882;25;20282;-78
2024/04/25 10:00:18;;;;;;;31.50;9.30;;;;;;;;;;5552707;25;20718;-79
2024/04/25 10:02:48;;;;;;;33.30;10.43;;;;;;;;;;5548326;25;20663;-78
2024/04/25 10:05:19;;;;;;;36.60;10.60;;;;;;;;;;5557721;25;20274;-78
2024/04/25 10:07:48;;;;;;;34.20;10.77;;;;;;;;;;5527843;25;20784;-79
2024/04/25 10:10:17;;;;;;;27.63;9.93;;;;;;;;;;5561497;25;20226;-78
2024/04/25 10:12:52;;;;;;;47.60;12.33;;;;;;;;;;5542965;25;20268;-79
2024/04/25 10:15:28;;;;;;;36.97;11.53;;;;;;;;;;5540033;25;20272;-79
2024/04/25 10:17:56;;;;;;;42.87;9.63;;;;;;;;;;5564379;25;20784;-79
2024/04/25 10:20:28;;;;;;;29.03;10.37;;;;;;;;;;5549818;25;20692;-78
2024/04/25 10:23:00;;;;;;;39.43;11.33;;;;;;;;;;5527763;25;20232;-78
2024/04/25 10:25:29;;;;;;;33.30;10.80;;;;;;;;;;5527216;25;20278;-79
2024/04/25 10:27:58;;;;;;;25.03;8.93;;;;;;;;;;5533990;25;20559;-78
2024/04/25 10:30:27;;;;;;;32.60;9.97;;;;;;;;;;5565028;25;20278;-78
2024/04/25 10:32:55;;;;;;;23.77;9.70;;;;;;;;;;5531450;25;20236;-78
2024/04/25 10:35:27;;;;;;;38.17;9.07;;;;;;;;;;5548777;25;20737;-78
2024/04/25 10:37:56;;;;;;;27.73;9.30;;;;;;;;;;5539815;25;20269;-78
2024/04/25 10:40:21;;;;;;;23.93;8.90;;;;;;;;;;5540935;25;20228;-78
2024/04/25 10:42:58;;;;;;;29.90;7.57;;;;;;;;;;5529866;25;20630;-78
2024/04/25 10:45:27;;;;;;;23.73;8.97;;;;;;;;;;5528996;25;20562;-78
2024/04/25 10:47:55;;;;;;;23.67;9.17;;;;;;;;;;5564583;25;20288;-78
2024/04/25 10:50:26;;;;;;;32.07;11.13;;;;;;;;;;5535533;25;20224;-78
2024/04/25 10:52:55;;;;;;;30.47;10.53;;;;;;;;;;5544938;25;20234;-79
2024/04/25 10:55:24;;;;;;;25.57;9.40;;;;;;;;;;5563382;25;20250;-79
2024/04/25 10:57:52;;;;;;;19.90;9.83;;;;;;;;;;5564275;25;20562;-78
2024/04/25 11:00:21;;;;;;;32.80;9.70;;;;;;;;;;5557396;25;20224;-79
2024/04/25 11:02:52;;;;;;;26.80;10.33;;;;;;;;;;5527603;25;20290;-79
2024/04/25 11:05:22;;;;;;;37.53;12.13;;;;;;;;;;5553612;25;20236;-79
2024/04/25 11:07:53;;;;;;;27.97;11.07;;;;;;;;;;5548761;25;20337;-78
2024/04/25 11:10:21;;;;;;;26.23;10.33;;;;;;;;;;5554111;25;20635;-81
2024/04/25 11:12:50;;;;;;;37.80;11.40;;;;;;;;;;5550489;25;20226;-81
2024/04/25 11:15:20;;;;;;;35.70;14.17;;;;;;;;;;5564322;25;20226;-81
2024/04/25 11:17:49;;;;;;;20.23;11.93;;;;;;;;;;5563643;25;20551;-81
2024/04/25 11:20:18;;;;;;;28.00;13.33;;;;;;;;;;5541167;25;20276;-81
2024/04/25 11:22:46;;;;;;;58.70;28.90;;;;;;;;;;5536419;25;20822;-82
2024/04/25 11:25:19;;;;;;;38.87;22.77;;;;;;;;;;5542683;25;20767;-80
2024/04/25 11:27:47;;;;;;;43.17;18.63;;;;;;;;;;5559288;25;20231;-81
2024/04/25 11:30:16;;;;;;;28.50;11.63;;;;;;;;;;5545327;25;20273;-80
2024/04/25 11:32:46;;;;;;;28.63;12.17;;;;;;;;;;5533140;25;20228;-80
2024/04/25 11:35:19;;;;;;;109.73;56.10;;;;;;;;;;5526655;25;20236;-80
2024/04/25 11:37:47;;;;;;;90.20;52.97;;;;;;;;;;5536384;25;20760;-80
2024/04/25 11:40:30;;;;;;;42.30;21.27;;;;;;;;;;5541027;25;20273;-80
2024/04/25 11:42:58;;;;;;;28.13;14.23;;;;;;;;;;5541384;25;20281;-77
2024/04/25 11:45:27;;;;;;;58.27;25.70;;;;;;;;;;5563334;25;20223;-77
2024/04/25 11:47:57;;;;;;;32.70;12.43;;;;;;;;;;5564424;25;20290;-78
2024/04/25 11:50:25;;;;;;;25.03;10.70;;;;;;;;;;5558929;25;20289;-78
2024/04/25 11:52:54;;;;;;;27.00;11.03;;;;;;;;;;5543947;25;20285;-77
2024/04/25 11:55:25;;;;;;;24.27;11.47;;;;;;;;;;5557695;25;20794;-78
2024/04/25 11:57:53;;;;;;;26.87;12.73;;;;;;;;;;5546206;25;20273;-77
2024/04/25 12:00:22;;;;;;;28.50;10.97;;;;;;;;;;5563743;25;20615;-78
2024/04/25 12:02:50;;;;;;;24.57;9.67;;;;;;;;;;5541984;25;20331;-78
2024/04/25 12:05:19;;;;;;;26.10;9.60;;;;;;;;;;5550203;25;20232;-77
2024/04/25 12:07:49;;;;;;;13.80;8.40;;;;;;;;;;5526141;25;20224;-77
2024/04/25 12:10:21;;;;;;;18.10;8.10;;;;;;;;;;5525973;25;20231;-77
2024/04/25 12:12:55;;;;;;;17.90;7.50;;;;;;;;;;5526495;25;20232;-77
2024/04/25 12:15:23;;;;;;;15.97;10.03;;;;;;;;;;5526274;25;20263;-77
2024/04/25 12:17:52;;;;;;;12.73;7.53;;;;;;;;;;5551879;25;20310;-78
2024/04/25 12:20:20;;;;;;;15.83;7.63;;;;;;;;;;5563120;25;20238;-77
2024/04/25 12:22:51;;;;;;;19.47;7.40;;;;;;;;;;5538811;25;20291;-77
2024/04/25 12:25:19;;;;;;;16.33;6.33;;;;;;;;;;5547288;25;20262;-77
2024/04/25 12:27:47;;;;;;;14.63;5.57;;;;;;;;;;5530282;25;20232;-77
2024/04/25 12:30:19;;;;;;;12.77;6.30;;;;;;;;;;5563015;25;20227;-77
2024/04/25 12:32:47;;;;;;;11.47;5.13;;;;;;;;;;5531785;25;20235;-77
2024/04/25 12:35:15;;;;;;;10.30;4.93;;;;;;;;;;5545494;25;20226;-77
2024/04/25 12:37:44;;;;;;;10.67;5.30;;;;;;;;;;5530577;25;20248;-77
2024/04/25 12:40:12;;;;;;;5.43;4.07;;;;;;;;;;5546317;25;20222;-77
2024/04/25 12:42:41;;;;;;;8.37;4.33;;;;;;;;;;5563210;25;20290;-77
2024/04/25 12:45:09;;;;;;;8.03;4.20;;;;;;;;;;5540425;25;20727;-78
2024/04/25 12:47:42;;;;;;;6.53;3.60;;;;;;;;;;5536337;25;20223;-78
2024/04/25 12:50:10;;;;;;;8.17;3.50;;;;;;;;;;5538251;25;20774;-77
2024/04/25 12:52:39;;;;;;;6.10;3.33;;;;;;;;;;5538271;25;20290;-77
2024/04/25 12:55:07;;;;;;;5.03;2.83;;;;;;;;;;5536529;25;20654;-78
2024/04/25 12:57:36;;;;;;;10.60;3.10;;;;;;;;;;5525624;25;20646;-78
2024/04/25 13:00:04;;;;;;;6.50;2.67;;;;;;;;;;5551649;25;20290;-78
2024/04/25 13:02:32;;;;;;;8.33;3.77;;;;;;;;;;5562475;25;20304;-78
2024/04/25 13:05:03;;;;;;;18.33;4.37;;;;;;;;;;5561700;25;20242;-78
2024/04/25 13:07:32;;;;;;;14.70;4.30;;;;;;;;;;5545580;25;20238;-78
2024/04/25 13:10:00;;;;;;;17.90;4.67;;;;;;;;;;5549394;25;20241;-77
2024/04/25 13:12:29;;;;;;;9.47;5.07;;;;;;;;;;5542175;25;20273;-77
2024/04/25 13:14:57;;;;;;;13.10;4.53;;;;;;;;;;5561818;25;21511;-78
2024/04/25 13:17:25;;;;;;;13.87;5.20;;;;;;;;;;5545596;25;20303;-78
2024/04/25 13:19:57;;;;;;;9.47;3.67;;;;;;;;;;5535346;25;20286;-78
2024/04/25 13:22:28;;;;;;;12.60;4.17;;;;;;;;;;5545167;25;20238;-78
2024/04/25 13:24:59;;;;;;;6.97;3.90;;;;;;;;;;5528017;25;20271;-78
2024/04/25 13:27:28;;;;;;;6.40;3.77;;;;;;;;;;5552083;25;20388;-78
2024/04/25 13:29:58;;;;;;;7.87;3.60;;;;;;;;;;5528352;25;20247;-78
2024/04/25 13:32:27;;;;;;;10.00;3.43;;;;;;;;;;5553741;25;20604;-78
2024/04/25 13:34:58;;;;;;;8.67;3.17;;;;;;;;;;5542060;25;20235;-78
2024/04/25 13:37:29;;;;;;;3.93;3.23;;;;;;;;;;5537488;25;20238;-78
2024/04/25 13:39:57;;;;;;;3.93;2.70;;;;;;;;;;5545379;25;20685;-78
2024/04/25 13:42:26;;;;;;;4.73;3.03;;;;;;;;;;5560323;25;21077;-78
2024/04/25 13:44:55;;;;;;;8.80;3.37;;;;;;;;;;5546818;25;20606;-77
2024/04/25 13:47:23;;;;;;;7.93;2.83;;;;;;;;;;5565488;25;20627;-77
2024/04/25 13:49:51;;;;;;;7.20;3.03;;;;;;;;;;5565864;25;20228;-77
2024/04/25 13:52:20;;;;;;;4.83;3.50;;;;;;;;;;5563669;25;20283;-78
2024/04/25 13:54:51;;;;;;;4.43;2.87;;;;;;;;;;5565298;25;20244;-78
2024/04/25 13:57:19;;;;;;;8.27;3.33;;;;;;;;;;5540698;25;20226;-78
2024/04/25 13:59:48;;;;;;;9.47;3.67;;;;;;;;;;5565378;25;20236;-78
2024/04/25 14:02:16;;;;;;;4.53;3.13;;;;;;;;;;5540416;25;20905;-77
2024/04/25 14:04:45;;;;;;;7.63;3.27;;;;;;;;;;5565097;25;20297;-77
2024/04/25 14:07:13;;;;;;;8.63;3.67;;;;;;;;;;5564979;25;20267;-77
2024/04/25 14:09:42;;;;;;;7.00;2.40;;;;;;;;;;5564554;25;20247;-78
2024/04/25 14:12:13;;;;;;;3.23;2.23;;;;;;;;;;5541425;25;20781;-77
2024/04/25 14:14:42;;;;;;;2.27;1.93;;;;;;;;;;5564327;25;20347;-78
2024/04/25 14:17:10;;;;;;;3.30;2.30;;;;;;;;;;5564917;25;20237;-77
2024/04/25 14:19:38;;;;;;;4.53;4.13;;;;;;;;;;5539955;25;20229;-77
2024/04/25 14:22:07;;;;;;;14.43;9.27;;;;;;;;;;5549508;25;20363;-78
2024/04/25 14:24:38;;;;;;;4.07;2.47;;;;;;;;;;5555665;25;20774;-78
2024/04/25 14:29:53;;;;;;;2.80;2.17;;;;;;;;;;5551479;25;20299;-78
2024/04/25 14:32:21;;;;;;;4.57;2.90;;;;;;;;;;5527756;25;20226;-78
2024/04/25 14:34:50;;;;;;;3.33;2.73;;;;;;;;;;5539667;25;20306;-78
2024/04/25 14:37:19;;;;;;;5.70;2.50;;;;;;;;;;5539768;25;20262;-79
2024/04/25 14:39:48;;;;;;;3.00;2.67;;;;;;;;;;5527328;25;20652;-76
2024/04/25 14:42:16;;;;;;;5.33;4.23;;;;;;;;;;5516668;25;20270;-76